createdAt,value
2019-02-05T00:00:32.627Z,9.27
2019-02-05T00:01:41.071Z,9.67
2019-02-05T00:02:47.091Z,9.30
2019-02-05T00:03:53.282Z,9.70
2019-02-05T00:04:59.883Z,9.70
2019-02-05T00:06:06.327Z,8.93
2019-02-05T00:07:12.523Z,10.27
2019-02-05T00:08:18.612Z,11.67
2019-02-05T00:09:25.745Z,9.20
2019-02-05T00:10:31.848Z,9.00
2019-02-05T00:11:38.059Z,8.47
2019-02-05T00:12:44.265Z,9.60
2019-02-05T00:13:50.345Z,10.00
2019-02-05T00:14:56.426Z,10.43
2019-02-05T00:16:03.575Z,8.87
2019-02-05T00:17:09.854Z,8.23
2019-02-05T00:18:16.007Z,10.10
2019-02-05T00:19:23.148Z,10.37
2019-02-05T00:20:32.640Z,10.50
2019-02-05T00:21:38.841Z,9.63
2019-02-05T00:22:45.010Z,10.37
2019-02-05T00:23:51.093Z,8.97
2019-02-05T00:25:09.233Z,9.33
2019-02-05T00:26:15.309Z,10.60
2019-02-05T00:27:21.449Z,10.20
2019-02-05T00:28:27.686Z,9.47
2019-02-05T00:29:33.820Z,9.30
2019-02-05T00:30:39.955Z,10.27
2019-02-05T00:31:46.118Z,10.07
2019-02-05T00:32:52.232Z,8.73
2019-02-05T00:33:58.482Z,10.93
2019-02-05T00:35:04.862Z,9.63
2019-02-05T00:36:14.006Z,8.97
2019-02-05T00:37:20.143Z,10.57
2019-02-05T00:38:26.351Z,10.37
2019-02-05T00:39:32.416Z,9.47
2019-02-05T00:40:38.589Z,9.33
2019-02-05T00:41:45.193Z,10.77
2019-02-05T00:42:51.803Z,12.70
2019-02-05T00:43:58.336Z,10.70
2019-02-05T00:45:05.535Z,9.97
2019-02-05T00:46:12.058Z,10.40
2019-02-05T00:47:18.135Z,12.47
2019-02-05T00:48:24.290Z,11.60
2019-02-05T00:49:30.457Z,13.33
2019-02-05T00:50:36.521Z,12.90
2019-02-05T00:51:42.752Z,14.00
2019-02-05T00:52:48.927Z,10.63
2019-02-05T00:53:54.983Z,10.50
2019-02-05T00:55:01.129Z,11.87
2019-02-05T00:56:17.370Z,12.03
2019-02-05T00:57:15.214Z,12.20
2019-02-05T00:58:21.298Z,12.33
2019-02-05T00:59:27.457Z,13.00
2019-02-05T01:00:33.563Z,12.00
2019-02-05T01:01:39.777Z,12.93
2019-02-05T01:02:49.010Z,12.33
2019-02-05T01:03:55.238Z,11.47
2019-02-05T01:05:01.302Z,12.87
2019-02-05T01:06:07.624Z,11.63
2019-02-05T01:07:13.861Z,14.20
2019-02-05T01:08:20.055Z,14.40
2019-02-05T01:09:26.375Z,12.57
2019-02-05T01:10:32.554Z,15.90
2019-02-05T01:11:39.857Z,14.97
2019-02-05T01:12:46.082Z,13.50
2019-02-05T01:13:52.597Z,14.60
2019-02-05T01:14:59.129Z,14.67
2019-02-05T01:16:06.064Z,15.67
2019-02-05T01:17:12.307Z,15.53
2019-02-05T01:18:18.476Z,13.33
2019-02-05T01:19:25.101Z,15.77
2019-02-05T01:20:31.179Z,12.07
2019-02-05T01:21:37.334Z,14.20
2019-02-05T01:22:43.631Z,14.53
2019-02-05T01:23:49.839Z,15.97
2019-02-05T01:24:56.112Z,16.23
2019-02-05T01:26:02.437Z,15.10
2019-02-05T01:27:08.822Z,12.67
2019-02-05T01:28:14.882Z,13.03
2019-02-05T01:29:21.029Z,13.70
2019-02-05T01:30:29.123Z,12.30
2019-02-05T01:31:35.292Z,12.83
2019-02-05T01:32:41.445Z,12.30
2019-02-05T01:33:47.666Z,13.00
2019-02-05T01:34:53.748Z,12.27
2019-02-05T01:35:59.906Z,13.83
2019-02-05T01:37:06.060Z,13.83
2019-02-05T01:38:12.103Z,13.90
2019-02-05T01:39:18.149Z,11.67
2019-02-05T01:40:27.255Z,15.37
2019-02-05T01:41:33.318Z,15.57
2019-02-05T01:42:39.486Z,13.60
2019-02-05T01:43:45.566Z,15.80
2019-02-05T01:44:51.650Z,16.73
2019-02-05T01:45:59.198Z,15.67
2019-02-05T01:47:05.722Z,15.40
2019-02-05T01:48:12.264Z,16.20
2019-02-05T01:49:18.511Z,15.60
2019-02-05T01:50:27.050Z,14.10
2019-02-05T01:51:33.295Z,15.93
2019-02-05T01:52:39.440Z,16.03
2019-02-05T01:53:45.667Z,13.03
2019-02-05T01:54:51.948Z,13.83
2019-02-05T01:56:01.228Z,14.03
2019-02-05T01:57:08.438Z,14.33
2019-02-05T01:58:14.671Z,14.53
2019-02-05T01:59:20.829Z,14.30
2019-02-05T02:00:33.437Z,15.70
2019-02-05T02:01:39.602Z,15.57
2019-02-05T02:02:45.837Z,15.67
2019-02-05T02:03:52.068Z,12.73
2019-02-05T02:04:58.314Z,15.00
2019-02-05T02:06:04.489Z,12.60
2019-02-05T02:07:14.496Z,15.57
2019-02-05T02:08:20.697Z,14.27
2019-02-05T02:09:27.894Z,14.43
2019-02-05T02:10:34.116Z,13.47
2019-02-05T02:11:40.280Z,15.27
2019-02-05T02:12:46.696Z,12.93
2019-02-05T02:13:52.914Z,14.90
2019-02-05T02:14:59.072Z,14.13
2019-02-05T02:16:05.212Z,15.57
2019-02-05T02:17:11.306Z,15.43
2019-02-05T02:18:17.429Z,15.80
2019-02-05T02:19:23.589Z,16.23
2019-02-05T02:20:29.789Z,17.47
2019-02-05T02:21:36.115Z,17.40
2019-02-05T02:22:43.652Z,17.83
2019-02-05T02:23:50.192Z,16.17
2019-02-05T02:24:56.485Z,15.70
2019-02-05T02:26:02.645Z,16.47
2019-02-05T02:27:08.779Z,14.90
2019-02-05T02:28:18.411Z,15.57
2019-02-05T02:29:24.453Z,14.67
2019-02-05T02:30:37.242Z,18.73
2019-02-05T02:31:43.268Z,20.03
2019-02-05T02:32:49.348Z,18.97
2019-02-05T02:33:55.602Z,16.33
2019-02-05T02:35:01.744Z,19.30
2019-02-05T02:36:08.050Z,20.60
2019-02-05T02:37:14.147Z,16.37
2019-02-05T02:38:20.551Z,16.33
2019-02-05T02:39:26.702Z,18.33
2019-02-05T02:40:32.748Z,16.37
2019-02-05T02:41:38.847Z,17.60
2019-02-05T02:42:45.025Z,22.43
2019-02-05T02:43:51.157Z,16.77
2019-02-05T02:44:57.365Z,15.60
2019-02-05T02:46:03.621Z,14.37
2019-02-05T02:47:10.759Z,14.30
2019-02-05T02:48:16.937Z,16.07
2019-02-05T02:49:22.992Z,12.53
2019-02-05T02:50:29.075Z,14.50
2019-02-05T02:51:35.281Z,17.87
2019-02-05T02:52:41.462Z,15.20
2019-02-05T02:53:47.639Z,16.67
2019-02-05T02:54:54.079Z,15.23
2019-02-05T02:56:01.197Z,15.17
2019-02-05T02:57:07.836Z,18.13
2019-02-05T02:58:13.896Z,16.93
2019-02-05T02:59:19.985Z,17.73
2019-02-05T03:00:26.119Z,20.10
2019-02-05T03:01:32.283Z,20.80
2019-02-05T03:02:38.442Z,19.40
2019-02-05T03:03:44.591Z,18.27
2019-02-05T03:04:50.811Z,18.03
2019-02-05T03:05:56.975Z,16.80
2019-02-05T03:07:03.278Z,17.47
2019-02-05T03:08:09.441Z,21.30
2019-02-05T03:09:15.628Z,16.03
2019-02-05T03:10:32.055Z,18.43
2019-02-05T03:11:38.267Z,17.00
2019-02-05T03:12:44.577Z,14.93
2019-02-05T03:13:50.684Z,16.03
2019-02-05T03:14:56.837Z,17.57
2019-02-05T03:16:02.896Z,17.07
2019-02-05T03:17:09.120Z,16.07
2019-02-05T03:18:16.344Z,15.37
2019-02-05T03:19:22.513Z,18.40
2019-02-05T03:20:28.723Z,15.80
2019-02-05T03:21:34.807Z,17.37
2019-02-05T03:22:41.248Z,16.80
2019-02-05T03:23:49.142Z,15.37
2019-02-05T03:24:55.300Z,16.83
2019-02-05T03:26:01.418Z,15.37
2019-02-05T03:27:17.220Z,15.57
2019-02-05T03:28:15.239Z,13.43
2019-02-05T03:29:21.499Z,13.93
2019-02-05T03:30:27.724Z,18.43
2019-02-05T03:31:33.868Z,15.97
2019-02-05T03:32:40.102Z,14.20
2019-02-05T03:33:46.252Z,14.33
2019-02-05T03:34:52.408Z,14.63
2019-02-05T03:36:01.605Z,13.30
2019-02-05T03:37:07.744Z,20.03
2019-02-05T03:38:13.895Z,15.90
2019-02-05T03:39:20.027Z,15.93
2019-02-05T03:41:03.143Z,20.10
2019-02-05T03:42:09.869Z,17.23
2019-02-05T03:43:16.163Z,22.00
2019-02-05T03:44:22.207Z,17.10
2019-02-05T03:45:28.276Z,14.27
2019-02-05T03:46:34.502Z,15.30
2019-02-05T03:47:40.721Z,13.87
2019-02-05T03:48:48.958Z,14.53
2019-02-05T03:49:55.032Z,16.53
2019-02-05T03:51:46.241Z,17.77
2019-02-05T03:52:55.835Z,14.77
2019-02-05T03:54:23.718Z,14.10
2019-02-05T03:56:12.413Z,14.13
2019-02-05T03:58:02.416Z,12.70
2019-02-05T03:59:55.823Z,10.60
2019-02-05T04:02:00.217Z,14.57
2019-02-05T04:04:11.530Z,11.67
2019-02-05T04:06:14.399Z,11.87
2019-02-05T04:08:22.244Z,11.17
2019-02-05T04:10:22.443Z,12.13
2019-02-05T04:12:09.303Z,10.83
2019-02-05T04:14:16.830Z,11.53
2019-02-05T04:15:54.897Z,10.43
2019-02-05T04:18:06.738Z,12.50
2019-02-05T04:19:42.271Z,11.37
2019-02-05T04:21:33.476Z,15.17
2019-02-05T04:23:37.080Z,11.73
2019-02-05T04:25:44.605Z,13.60
2019-02-05T04:27:44.970Z,13.10
2019-02-05T04:29:54.370Z,12.47
2019-02-05T04:32:25.330Z,13.10
2019-02-05T04:34:37.217Z,12.80
2019-02-05T04:36:39.984Z,11.70
2019-02-05T04:38:49.189Z,12.93
2019-02-05T04:40:19.567Z,12.73
2019-02-05T04:42:47.480Z,14.93
2019-02-05T04:44:33.605Z,12.87
2019-02-05T04:46:38.357Z,15.40
2019-02-05T04:48:49.784Z,13.83
2019-02-05T04:50:26.204Z,12.57
2019-02-05T04:52:03.475Z,14.03
2019-02-05T04:54:16.818Z,14.80
2019-02-05T04:55:46.753Z,13.50
2019-02-05T04:57:58.048Z,16.20
2019-02-05T04:59:32.302Z,13.80
2019-02-05T05:01:59.104Z,14.53
2019-02-05T05:03:47.419Z,12.40
2019-02-05T05:05:56.396Z,11.07
2019-02-05T05:07:41.608Z,13.70
2019-02-05T05:09:31.093Z,13.17
2019-02-05T05:10:37.164Z,13.57
2019-02-05T05:11:43.310Z,14.17
2019-02-05T05:12:49.459Z,14.70
2019-02-05T05:13:55.622Z,16.37
2019-02-05T05:15:02.090Z,18.70
2019-02-05T05:16:08.320Z,14.67
2019-02-05T05:17:14.593Z,19.40
2019-02-05T05:18:20.760Z,17.97
2019-02-05T05:19:27.033Z,21.63
2019-02-05T05:20:33.182Z,16.80
2019-02-05T05:21:39.289Z,17.93
2019-02-05T05:22:45.539Z,20.90
2019-02-05T05:23:51.957Z,17.47
2019-02-05T05:24:58.067Z,16.80
2019-02-05T05:26:05.463Z,18.40
2019-02-05T05:27:13.049Z,17.80
2019-02-05T05:28:19.571Z,21.00
2019-02-05T05:29:25.624Z,20.10
2019-02-05T05:30:31.743Z,18.33
2019-02-05T05:31:37.790Z,18.23
2019-02-05T05:32:43.941Z,18.53
2019-02-05T05:33:50.163Z,22.03
2019-02-05T05:34:56.318Z,17.13
2019-02-05T05:36:03.467Z,15.77
2019-02-05T05:37:07.611Z,16.10
2019-02-05T05:38:13.811Z,14.33
2019-02-05T05:39:20.634Z,15.80
2019-02-05T05:40:26.741Z,18.57
2019-02-05T05:41:32.908Z,15.33
2019-02-05T05:42:38.967Z,21.17
2019-02-05T05:43:45.031Z,16.47
2019-02-05T05:44:51.303Z,17.47
2019-02-05T05:45:57.520Z,19.77
2019-02-05T05:47:03.683Z,16.83
2019-02-05T05:48:10.968Z,16.97
2019-02-05T05:49:17.052Z,19.07
2019-02-05T05:50:24.331Z,17.47
2019-02-05T05:51:36.715Z,18.70
2019-02-05T05:52:43.600Z,17.13
2019-02-05T05:53:59.787Z,17.77
2019-02-05T05:55:15.903Z,16.87
2019-02-05T05:56:23.034Z,16.77
2019-02-05T05:57:29.188Z,17.43
2019-02-05T05:58:35.317Z,19.37
2019-02-05T05:59:41.979Z,17.27
2019-02-05T06:00:48.116Z,18.23
2019-02-05T06:01:54.573Z,18.10
2019-02-05T06:03:01.021Z,16.83
2019-02-05T06:04:07.513Z,16.93
2019-02-05T06:05:15.830Z,15.97
2019-02-05T06:06:22.034Z,17.93
2019-02-05T06:07:28.792Z,17.80
2019-02-05T06:08:35.128Z,20.73
2019-02-05T06:09:41.341Z,19.53
2019-02-05T06:11:02.334Z,19.37
2019-02-05T06:12:08.550Z,17.97
2019-02-05T06:13:14.620Z,18.37
2019-02-05T06:14:21.770Z,19.30
2019-02-05T06:15:28.327Z,19.90
2019-02-05T06:16:34.445Z,18.97
2019-02-05T06:17:40.550Z,17.63
2019-02-05T06:18:46.699Z,18.33
2019-02-05T06:19:52.940Z,17.80
2019-02-05T06:21:01.207Z,17.00
2019-02-05T06:22:07.322Z,20.17
2019-02-05T06:23:13.370Z,17.93
2019-02-05T06:24:19.523Z,16.30
2019-02-05T06:25:25.837Z,16.03
2019-02-05T06:26:32.087Z,18.10
2019-02-05T06:27:38.183Z,18.77
2019-02-05T06:28:44.329Z,19.00
2019-02-05T06:29:50.487Z,17.53
2019-02-05T06:30:58.112Z,15.73
2019-02-05T06:32:04.261Z,20.00
2019-02-05T06:33:10.479Z,18.80
2019-02-05T06:34:16.538Z,20.43
2019-02-05T06:35:23.846Z,17.77
2019-02-05T06:36:30.593Z,19.97
2019-02-05T06:37:37.031Z,22.07
2019-02-05T06:38:44.708Z,20.40
2019-02-05T06:39:50.962Z,19.03
2019-02-05T06:40:57.291Z,17.60
2019-02-05T06:42:03.472Z,17.43
2019-02-05T06:43:09.638Z,18.00
2019-02-05T06:44:15.818Z,17.03
2019-02-05T06:45:22.249Z,16.00
2019-02-05T06:46:28.911Z,19.67
2019-02-05T06:47:34.980Z,20.87
2019-02-05T06:48:41.080Z,16.33
2019-02-05T06:49:48.841Z,16.63
2019-02-05T06:50:56.896Z,18.70
2019-02-05T06:52:02.837Z,18.23
2019-02-05T06:53:09.014Z,17.73
2019-02-05T06:54:15.153Z,18.77
2019-02-05T06:55:22.072Z,17.07
2019-02-05T06:56:28.183Z,18.27
2019-02-05T06:57:34.274Z,16.67
2019-02-05T06:58:46.467Z,16.57
2019-02-05T06:59:48.570Z,17.97
2019-02-05T07:00:54.724Z,16.77
2019-02-05T07:02:01.096Z,18.93
2019-02-05T07:03:07.521Z,21.60
2019-02-05T07:04:13.890Z,20.90
2019-02-05T07:05:23.431Z,18.30
2019-02-05T07:06:29.892Z,17.13
2019-02-05T07:07:36.011Z,20.13
2019-02-05T07:08:42.640Z,17.73
2019-02-05T07:09:48.931Z,20.83
2019-02-05T07:10:55.104Z,18.87
2019-02-05T07:12:01.260Z,18.73
2019-02-05T07:13:07.551Z,18.27
2019-02-05T07:14:13.802Z,21.07
2019-02-05T09:36:51.298Z,17.50
2019-02-05T09:37:57.990Z,18.67
2019-02-05T09:39:06.642Z,22.80
2019-02-05T09:40:18.480Z,20.03
2019-02-05T09:41:24.537Z,19.17
2019-02-05T09:42:30.752Z,19.50
2019-02-05T09:43:36.798Z,16.97
2019-02-05T09:44:42.915Z,17.67
2019-02-05T09:45:49.013Z,19.20
2019-02-05T09:46:55.201Z,21.60
2019-02-05T09:48:02.023Z,20.73
2019-02-05T09:49:08.199Z,22.80
2019-02-05T09:50:14.815Z,19.40
2019-02-05T09:51:20.849Z,21.83
2019-02-05T09:52:26.921Z,18.10
2019-02-05T09:53:33.129Z,20.60
2019-02-05T09:54:39.258Z,19.10
2019-02-05T09:55:45.583Z,19.40
2019-02-05T09:56:51.650Z,20.50
2019-02-05T09:57:57.711Z,18.33
2019-02-05T09:59:03.868Z,20.67
2019-02-05T10:00:18.528Z,20.10
2019-02-05T10:01:24.564Z,17.53
2019-02-05T10:02:30.649Z,23.17
2019-02-05T10:03:36.863Z,17.60
2019-02-05T10:04:43.232Z,19.00
2019-02-05T10:05:49.267Z,20.57
2019-02-05T10:06:55.338Z,18.03
2019-02-05T10:08:01.391Z,21.23
2019-02-05T10:09:09.534Z,23.13
2019-02-05T10:10:17.573Z,19.43
2019-02-05T10:11:23.611Z,20.00
2019-02-05T10:12:29.671Z,18.17
2019-02-05T10:13:35.742Z,18.27
2019-02-05T10:14:41.763Z,20.67
2019-02-05T10:15:47.825Z,19.53
2019-02-05T10:16:53.944Z,18.93
2019-02-05T10:17:59.987Z,21.83
2019-02-05T10:19:06.108Z,20.80
2019-02-05T10:20:12.619Z,23.07
2019-02-05T10:21:19.289Z,21.77
2019-02-05T10:22:25.713Z,18.33
2019-02-05T10:23:32.156Z,21.30
2019-02-05T10:24:38.230Z,19.93
2019-02-05T10:25:44.419Z,21.63
2019-02-05T10:26:50.513Z,22.30
2019-02-05T10:27:56.569Z,24.57
2019-02-05T10:29:02.802Z,20.50
2019-02-05T10:30:15.448Z,20.80
2019-02-05T10:31:21.511Z,17.77
2019-02-05T10:32:27.566Z,22.67
2019-02-05T10:33:33.646Z,22.20
2019-02-05T10:34:39.688Z,20.50
2019-02-05T10:35:45.712Z,21.17
2019-02-05T10:36:55.375Z,21.33
2019-02-05T10:38:01.428Z,24.93
2019-02-05T10:39:10.287Z,17.37
2019-02-05T10:40:17.099Z,19.43
2019-02-05T10:41:23.216Z,21.63
2019-02-05T10:42:29.281Z,19.23
2019-02-05T10:43:35.397Z,20.03
2019-02-05T10:44:41.473Z,18.47
2019-02-05T10:45:47.589Z,19.37
2019-02-05T10:46:53.627Z,19.73
2019-02-05T10:47:59.654Z,19.27
2019-02-05T10:49:05.750Z,19.57
2019-02-05T10:50:14.426Z,21.73
2019-02-05T10:51:20.981Z,20.43
2019-02-05T10:52:27.474Z,16.87
2019-02-05T10:53:34.067Z,19.07
2019-02-05T10:54:41.202Z,19.37
2019-02-05T10:55:47.289Z,18.40
2019-02-05T10:56:53.442Z,16.83
2019-02-05T10:57:59.623Z,18.83
2019-02-05T10:59:05.975Z,21.23
2019-02-05T11:00:22.417Z,25.67
2019-02-05T11:01:28.615Z,23.37
2019-02-05T11:02:34.761Z,21.73
2019-02-05T11:03:40.815Z,19.70
2019-02-05T11:04:47.898Z,19.80
2019-02-05T11:05:54.094Z,21.97
2019-02-05T11:07:01.009Z,19.20
2019-02-05T11:08:08.205Z,20.73
2019-02-05T11:09:14.544Z,20.83
2019-02-05T11:10:20.677Z,18.83
2019-02-05T11:11:26.790Z,20.33
2019-02-05T11:12:32.914Z,17.47
2019-02-05T11:13:38.987Z,21.03
2019-02-05T11:14:45.019Z,18.03
2019-02-05T11:15:51.098Z,17.67
2019-02-05T11:16:57.216Z,17.03
2019-02-05T11:18:05.434Z,19.00
2019-02-05T11:19:11.592Z,21.30
2019-02-05T11:20:22.119Z,18.53
2019-02-05T11:21:28.447Z,16.87
2019-02-05T11:22:36.050Z,19.93
2019-02-05T11:23:42.285Z,19.60
2019-02-05T11:24:48.685Z,19.83
2019-02-05T11:25:54.821Z,18.63
2019-02-05T11:27:00.903Z,18.13
2019-02-05T11:28:07.140Z,17.83
2019-02-05T11:29:13.289Z,20.03
2019-02-05T11:30:29.277Z,18.40
2019-02-05T11:31:35.401Z,21.43
2019-02-05T11:32:41.563Z,19.10
2019-02-05T11:33:47.621Z,18.77
2019-02-05T11:34:53.818Z,17.77
2019-02-05T11:35:59.964Z,23.77
2019-02-05T11:37:06.188Z,19.80
2019-02-05T11:38:13.420Z,17.33
2019-02-05T11:39:19.787Z,20.33
2019-02-05T11:40:30.297Z,21.00
2019-02-05T11:41:36.428Z,18.40
2019-02-05T11:42:42.489Z,18.67
2019-02-05T11:43:48.552Z,22.13
2019-02-05T11:44:54.602Z,18.50
2019-02-05T11:46:00.651Z,17.90
2019-02-05T11:47:06.800Z,21.53
2019-02-05T11:48:18.138Z,19.50
2019-02-05T11:49:24.213Z,18.87
2019-02-05T11:50:30.289Z,19.83
2019-02-05T11:51:36.499Z,17.67
2019-02-05T11:52:42.631Z,18.63
2019-02-05T11:53:49.057Z,17.47
2019-02-05T11:54:56.100Z,20.80
2019-02-05T11:56:02.339Z,20.50
2019-02-05T11:57:08.640Z,19.30
2019-02-05T11:58:15.874Z,17.63
2019-02-05T11:59:22.074Z,19.30
2019-02-05T12:00:50.005Z,22.47
2019-02-05T12:01:56.479Z,16.10
2019-02-05T12:03:04.282Z,20.30
2019-02-05T12:04:10.483Z,19.57
2019-02-05T12:05:16.635Z,19.50
2019-02-05T12:06:22.867Z,18.93
2019-02-05T12:07:28.986Z,20.23
2019-02-05T12:08:35.288Z,19.47
2019-02-05T12:09:41.656Z,17.90
2019-02-05T12:10:48.898Z,18.47
2019-02-05T12:11:54.989Z,20.37
2019-02-05T12:13:01.118Z,18.90
2019-02-05T12:14:10.334Z,18.90
2019-02-05T12:15:16.564Z,18.77
2019-02-05T12:16:22.737Z,19.37
2019-02-05T12:17:28.796Z,18.20
2019-02-05T12:18:34.891Z,19.17
2019-02-05T12:19:41.274Z,20.13
2019-02-05T12:20:47.497Z,19.67
2019-02-05T12:21:53.928Z,18.47
2019-02-05T12:23:00.108Z,19.90
2019-02-05T12:24:06.648Z,19.20
2019-02-05T12:25:15.465Z,18.07
2019-02-05T12:26:21.891Z,17.57
2019-02-05T12:27:28.418Z,19.37
2019-02-05T12:28:35.280Z,20.33
2019-02-05T12:29:41.402Z,18.27
2019-02-05T12:30:47.701Z,17.20
2019-02-05T12:31:53.721Z,17.87
2019-02-05T12:33:01.824Z,20.10
2019-02-05T12:34:07.727Z,19.33
2019-02-05T12:35:13.856Z,17.20
2019-02-05T12:36:21.015Z,21.63
2019-02-05T12:37:27.071Z,17.47
2019-02-05T12:38:33.386Z,18.37
2019-02-05T12:39:39.752Z,20.23
2019-02-05T12:40:45.933Z,19.57
2019-02-05T12:41:53.286Z,21.43
2019-02-05T12:42:59.495Z,20.40
2019-02-05T12:44:05.895Z,17.67
2019-02-05T12:45:15.197Z,16.37
2019-02-05T12:46:22.336Z,16.37
2019-02-05T12:47:28.587Z,20.47
2019-02-05T12:48:34.726Z,19.43
2019-02-05T12:49:40.847Z,19.07
2019-02-05T12:50:46.995Z,18.50
2019-02-05T12:51:53.143Z,20.57
2019-02-05T12:52:59.438Z,20.13
2019-02-05T12:54:05.589Z,19.43
2019-02-05T12:55:13.628Z,18.87
2019-02-05T12:56:20.076Z,21.27
2019-02-05T12:57:26.536Z,18.80
2019-02-05T12:58:32.601Z,19.30
2019-02-05T12:59:38.746Z,18.77
2019-02-05T13:00:56.557Z,20.10
2019-02-05T13:01:56.165Z,19.17
2019-02-05T13:03:02.312Z,19.70
2019-02-05T13:04:08.513Z,27.63
2019-02-05T13:05:14.586Z,21.90
2019-02-05T13:06:20.774Z,21.20
2019-02-05T13:07:26.928Z,26.17
2019-02-05T13:08:32.980Z,22.10
2019-02-05T13:09:39.051Z,23.20
2019-02-05T13:10:48.650Z,25.23
2019-02-05T13:11:55.140Z,22.47
2019-02-05T13:13:01.459Z,21.37
2019-02-05T13:14:07.630Z,22.03
2019-02-05T13:15:13.720Z,18.30
2019-02-05T13:16:19.842Z,22.23
2019-02-05T13:17:25.900Z,16.83
2019-02-05T13:18:32.081Z,17.27
2019-02-05T13:19:38.152Z,16.43
2019-02-05T13:20:44.235Z,18.60
2019-02-05T13:21:50.284Z,19.70
2019-02-05T13:22:56.346Z,21.17
2019-02-05T13:24:02.559Z,18.57
2019-02-05T13:25:15.632Z,17.53
2019-02-05T13:26:21.766Z,18.87
2019-02-05T13:27:28.346Z,21.17
2019-02-05T13:28:34.542Z,21.77
2019-02-05T13:29:40.917Z,16.53
2019-02-05T13:30:47.164Z,17.40
2019-02-05T13:31:53.778Z,17.03
2019-02-05T13:33:00.290Z,16.23
2019-02-05T13:34:07.159Z,16.77
2019-02-05T13:35:13.473Z,16.50
2019-02-05T13:36:22.513Z,14.53
2019-02-05T13:37:27.477Z,15.37
2019-02-05T13:38:33.564Z,16.43
2019-02-05T13:39:39.682Z,15.53
2019-02-05T13:40:45.930Z,16.73
2019-02-05T13:41:51.977Z,17.23
2019-02-05T13:42:58.037Z,17.13
2019-02-05T13:44:04.323Z,17.17
2019-02-05T13:45:10.386Z,19.07
2019-02-05T13:46:16.586Z,16.67
2019-02-05T13:47:24.756Z,19.67
2019-02-05T13:48:34.853Z,21.73
2019-02-05T13:49:40.904Z,15.80
2019-02-05T13:50:46.991Z,17.87
2019-02-05T13:51:53.189Z,15.80
2019-02-05T13:52:59.299Z,20.83
2019-02-05T13:54:05.598Z,20.27
2019-02-05T13:55:14.223Z,17.33
2019-02-05T13:56:20.277Z,17.87
2019-02-05T13:57:26.329Z,20.23
2019-02-05T13:58:32.414Z,17.60
2019-02-05T13:59:38.559Z,18.37
2019-02-05T14:00:54.505Z,16.90
2019-02-05T14:02:00.652Z,16.13
2019-02-05T14:03:08.565Z,16.13
2019-02-05T14:04:16.329Z,15.83
2019-02-05T14:05:22.419Z,16.27
2019-02-05T14:06:28.441Z,16.03
2019-02-05T14:07:34.569Z,14.93
2019-02-05T14:08:40.883Z,18.63
2019-02-05T14:09:47.470Z,16.57
2019-02-05T14:10:53.549Z,14.87
2019-02-05T14:11:59.846Z,16.30
2019-02-05T14:13:06.787Z,15.60
2019-02-05T14:14:12.832Z,16.73
2019-02-05T14:15:24.725Z,16.07
2019-02-05T14:16:30.910Z,17.80
2019-02-05T14:17:37.128Z,15.53
2019-02-05T14:18:54.698Z,17.13
2019-02-05T14:19:50.935Z,16.67
2019-02-05T14:20:56.975Z,15.97
2019-02-05T14:22:03.126Z,15.73
2019-02-05T14:23:09.303Z,16.07
2019-02-05T14:24:15.489Z,15.53
2019-02-05T14:25:21.680Z,17.13
2019-02-05T14:26:27.749Z,15.03
2019-02-05T14:27:33.901Z,16.23
2019-02-05T14:28:39.950Z,16.70
2019-02-05T14:29:46.011Z,15.93
2019-02-05T14:30:55.368Z,15.70
2019-02-05T14:32:02.470Z,15.67
2019-02-05T14:33:08.653Z,14.63
2019-02-05T14:34:14.878Z,16.03
2019-02-05T14:35:20.998Z,14.80
2019-02-05T14:36:27.205Z,16.23
2019-02-05T14:37:33.352Z,15.87
2019-02-05T14:38:39.557Z,15.10
2019-02-05T14:39:48.875Z,15.97
2019-02-05T14:40:53.901Z,16.83
2019-02-05T14:42:00.554Z,15.70
2019-02-05T14:43:07.651Z,16.53
2019-02-05T14:44:13.700Z,15.80
2019-02-05T14:45:22.561Z,16.00
2019-02-05T14:46:28.748Z,15.90
2019-02-05T14:47:34.803Z,16.47
2019-02-05T14:48:40.920Z,14.17
2019-02-05T14:49:47.821Z,20.50
2019-02-05T14:50:53.941Z,17.90
2019-02-05T14:52:00.078Z,17.43
2019-02-05T14:53:07.771Z,17.20
2019-02-05T14:54:14.137Z,15.70
2019-02-05T14:55:21.940Z,16.83
2019-02-05T14:56:28.043Z,15.47
2019-02-05T14:57:34.133Z,16.33
2019-02-05T14:58:40.256Z,15.20
2019-02-05T14:59:46.399Z,16.90
2019-02-05T15:00:52.625Z,19.63
2019-02-05T15:01:58.791Z,15.27
2019-02-05T15:03:07.464Z,16.57
2019-02-05T15:04:14.646Z,14.30
2019-02-05T15:05:22.436Z,15.40
2019-02-05T15:06:28.477Z,15.77
2019-02-05T15:07:34.611Z,15.97
2019-02-05T15:08:40.668Z,16.73
2019-02-05T15:09:49.511Z,16.17
2019-02-05T15:10:55.210Z,17.33
2019-02-05T15:12:04.861Z,17.37
2019-02-05T15:13:10.990Z,16.67
2019-02-05T15:14:18.481Z,17.00
2019-02-05T15:15:25.075Z,17.30
2019-02-05T15:16:31.194Z,17.07
2019-02-05T15:17:37.634Z,17.80
2019-02-05T15:18:45.152Z,18.00
2019-02-05T15:19:51.627Z,18.40
2019-02-05T15:20:57.818Z,18.20
2019-02-05T15:22:03.962Z,16.93
2019-02-05T15:23:14.227Z,18.57
2019-02-05T15:24:20.413Z,15.93
2019-02-05T15:25:26.550Z,17.50
2019-02-05T15:26:32.970Z,17.87
2019-02-05T15:27:39.462Z,17.83
2019-02-05T15:28:45.735Z,17.93
2019-02-05T15:29:51.984Z,18.33
2019-02-05T15:30:58.135Z,18.27
2019-02-05T15:32:04.274Z,18.27
2019-02-05T15:33:44.172Z,19.53
2019-02-05T15:34:50.312Z,15.43
2019-02-05T15:35:59.557Z,17.80
2019-02-05T15:37:06.094Z,18.23
2019-02-05T15:38:12.167Z,18.73
2019-02-05T15:39:18.270Z,17.90
2019-02-05T15:40:24.449Z,14.83
2019-02-05T15:41:30.605Z,16.67
2019-02-05T15:42:36.755Z,16.23
2019-02-05T15:43:42.848Z,18.37
2019-02-05T15:44:49.134Z,15.60
2019-02-05T15:45:55.437Z,16.67
2019-02-05T15:47:01.888Z,16.93
2019-02-05T15:48:07.966Z,15.83
2019-02-05T15:49:14.267Z,15.60
2019-02-05T15:50:20.321Z,16.03
2019-02-05T15:51:26.617Z,15.63
2019-02-05T15:52:36.179Z,15.63
2019-02-05T15:53:42.492Z,16.70
2019-02-05T15:54:48.695Z,18.30
2019-02-05T15:55:54.809Z,16.53
2019-02-05T15:57:00.960Z,18.20
2019-02-05T15:58:07.027Z,16.87
2019-02-05T15:59:13.076Z,17.03
2019-02-05T16:00:19.185Z,14.83
2019-02-05T16:01:26.385Z,14.17
2019-02-05T16:02:32.528Z,16.57
2019-02-05T16:03:38.646Z,16.87
2019-02-05T16:04:44.739Z,17.93
2019-02-05T16:05:51.470Z,14.30
2019-02-05T16:06:58.586Z,17.17
2019-02-05T16:08:05.271Z,16.10
2019-02-05T16:09:11.356Z,15.07
2019-02-05T16:10:17.855Z,18.30
2019-02-05T16:11:24.081Z,17.37
2019-02-05T16:12:30.214Z,16.10
2019-02-05T16:13:36.249Z,17.37
2019-02-05T16:14:42.390Z,17.50
2019-02-05T16:15:48.437Z,17.20
2019-02-05T16:16:54.662Z,18.67
2019-02-05T16:18:00.815Z,16.90
2019-02-05T16:19:07.043Z,15.20
2019-02-05T16:20:13.337Z,16.07
2019-02-05T16:21:19.549Z,17.33
2019-02-05T16:22:25.698Z,14.43
2019-02-05T16:23:31.783Z,16.70
2019-02-05T16:24:37.910Z,15.33
2019-02-05T16:25:43.988Z,16.27
2019-02-05T16:26:50.022Z,19.63
2019-02-05T16:27:56.226Z,16.87
2019-02-05T16:29:02.422Z,17.50
2019-02-05T16:30:15.552Z,16.43
2019-02-05T16:31:21.836Z,18.67
2019-02-05T16:32:28.011Z,18.90
2019-02-05T16:33:34.170Z,17.53
2019-02-05T16:34:40.240Z,16.90
2019-02-05T16:35:46.567Z,16.00
2019-02-05T16:36:53.183Z,17.87
2019-02-05T16:37:59.245Z,18.93
2019-02-05T16:39:10.087Z,15.60
2019-02-05T16:45:12.116Z,16.23
2019-02-05T16:46:18.317Z,19.07
2019-02-05T16:47:24.972Z,17.87
2019-02-05T16:48:31.266Z,18.27
2019-02-05T16:49:38.257Z,17.67
2019-02-05T16:50:46.305Z,18.07
2019-02-05T16:51:52.676Z,18.47
2019-02-05T16:52:58.991Z,17.07
2019-02-05T16:54:05.528Z,21.07
2019-02-05T16:55:11.650Z,17.67
2019-02-05T16:56:18.077Z,18.30
2019-02-05T16:57:24.392Z,18.03
2019-02-05T16:58:30.467Z,19.63
2019-02-05T16:59:36.670Z,18.57
2019-02-05T17:00:42.979Z,15.70
2019-02-05T17:01:49.022Z,18.10
2019-02-05T17:02:55.177Z,17.17
2019-02-05T17:04:01.316Z,17.53
2019-02-05T17:05:08.111Z,16.27
2019-02-05T17:06:14.374Z,15.37
2019-02-05T17:07:24.328Z,16.77
2019-02-05T17:08:29.420Z,16.80
2019-02-05T17:09:39.250Z,17.30
2019-02-05T17:10:45.487Z,18.00
2019-02-05T17:11:51.610Z,18.43
2019-02-05T17:12:57.744Z,18.83
2019-02-05T17:14:03.964Z,16.63
2019-02-05T17:15:12.713Z,16.73
2019-02-05T17:16:18.860Z,16.43
2019-02-05T17:17:25.017Z,19.20
2019-02-05T17:18:31.055Z,18.77
2019-02-05T17:19:37.239Z,20.03
2019-02-05T17:20:43.304Z,17.83
2019-02-05T17:21:49.540Z,22.03